sensor_id;sensor_type;location;lat;lon;timestamp;pressure;altitude;pressure_sealevel;temperature;humidity
10618;BME280;5356;43.526;26.534;2023-04-09T00:00:45;99555.38;;;9.23;100.00
10618;BME280;5356;43.526;26.534;2023-04-09T00:03:11;99558.22;;;9.21;100.00
10618;BME280;5356;43.526;26.534;2023-04-09T00:05:40;99554.97;;;9.26;100.00
10618;BME280;5356;43.526;26.534;2023-04-09T00:08:05;99566.63;;;9.32;100.00
10618;BME280;5356;43.526;26.534;2023-04-09T00:10:31;99564.38;;;9.35;100.00
10618;BME280;5356;43.526;26.534;2023-04-09T00:12:57;99561.50;;;9.30;100.00
10618;BME280;5356;43.526;26.534;2023-04-09T00:15:22;99566.59;;;9.18;100.00
10618;BME280;5356;43.526;26.534;2023-04-09T00:17:47;99564.50;;;9.07;100.00
10618;BME280;5356;43.526;26.534;2023-04-09T00:20:13;99566.94;;;9.02;100.00
10618;BME280;5356;43.526;26.534;2023-04-09T00:22:38;99573.25;;;8.94;100.00
10618;BME280;5356;43.526;26.534;2023-04-09T00:25:04;99573.22;;;8.81;100.00
10618;BME280;5356;43.526;26.534;2023-04-09T00:27:30;99582.81;;;8.75;100.00
10618;BME280;5356;43.526;26.534;2023-04-09T00:29:56;99576.84;;;8.73;100.00
10618;BME280;5356;43.526;26.534;2023-04-09T00:32:21;99583.19;;;8.72;100.00
10618;BME280;5356;43.526;26.534;2023-04-09T00:34:47;99574.84;;;8.75;100.00
10618;BME280;5356;43.526;26.534;2023-04-09T00:37:12;99582.16;;;8.67;100.00
10618;BME280;5356;43.526;26.534;2023-04-09T00:39:38;99584.00;;;8.66;100.00
10618;BME280;5356;43.526;26.534;2023-04-09T00:42:03;99573.56;;;8.65;100.00
10618;BME280;5356;43.526;26.534;2023-04-09T00:44:29;99581.75;;;8.70;100.00
10618;BME280;5356;43.526;26.534;2023-04-09T00:46:54;99577.88;;;8.72;100.00
10618;BME280;5356;43.526;26.534;2023-04-09T00:49:20;99570.53;;;8.74;100.00
10618;BME280;5356;43.526;26.534;2023-04-09T00:51:47;99565.03;;;8.83;100.00
10618;BME280;5356;43.526;26.534;2023-04-09T00:54:13;99563.00;;;8.85;100.00
10618;BME280;5356;43.526;26.534;2023-04-09T00:56:41;99571.84;;;8.92;100.00
10618;BME280;5356;43.526;26.534;2023-04-09T00:59:07;99570.81;;;8.93;100.00
10618;BME280;5356;43.526;26.534;2023-04-09T01:01:32;99574.06;;;8.88;100.00
10618;BME280;5356;43.526;26.534;2023-04-09T01:03:58;99572.22;;;8.89;100.00
10618;BME280;5356;43.526;26.534;2023-04-09T01:06:32;99564.03;;;8.84;100.00
10618;BME280;5356;43.526;26.534;2023-04-09T01:09:17;99565.91;;;8.90;100.00
10618;BME280;5356;43.526;26.534;2023-04-09T01:14:28;99570.16;;;8.84;100.00
10618;BME280;5356;43.526;26.534;2023-04-09T01:16:59;99563.81;;;8.85;100.00
10618;BME280;5356;43.526;26.534;2023-04-09T01:20:08;99570.34;;;8.83;100.00
10618;BME280;5356;43.526;26.534;2023-04-09T01:25:44;99567.69;;;8.76;100.00
10618;BME280;5356;43.526;26.534;2023-04-09T01:28:21;99568.50;;;8.76;100.00
10618;BME280;5356;43.526;26.534;2023-04-09T01:30:49;99563.19;;;8.76;100.00
10618;BME280;5356;43.526;26.534;2023-04-09T01:33:16;99574.41;;;8.72;100.00
10618;BME280;5356;43.526;26.534;2023-04-09T01:35:43;99576.22;;;8.71;100.00
10618;BME280;5356;43.526;26.534;2023-04-09T01:38:11;99578.47;;;8.68;100.00
10618;BME280;5356;43.526;26.534;2023-04-09T01:40:38;99569.63;;;8.54;100.00
10618;BME280;5356;43.526;26.534;2023-04-09T01:43:05;99576.34;;;8.50;100.00
10618;BME280;5356;43.526;26.534;2023-04-09T01:45:33;99567.75;;;8.48;100.00
10618;BME280;5356;43.526;26.534;2023-04-09T01:47:58;99570.81;;;8.45;100.00
10618;BME280;5356;43.526;26.534;2023-04-09T01:50:24;99563.41;;;8.40;100.00
10618;BME280;5356;43.526;26.534;2023-04-09T01:52:50;99568.94;;;8.39;100.00
10618;BME280;5356;43.526;26.534;2023-04-09T01:55:16;99569.44;;;8.27;100.00
10618;BME280;5356;43.526;26.534;2023-04-09T01:57:41;99574.53;;;8.22;100.00
10618;BME280;5356;43.526;26.534;2023-04-09T02:00:07;99569.22;;;8.22;100.00
10618;BME280;5356;43.526;26.534;2023-04-09T02:02:47;99568.53;;;8.14;100.00
10618;BME280;5356;43.526;26.534;2023-04-09T02:05:18;99569.91;;;8.03;100.00
10618;BME280;5356;43.526;26.534;2023-04-09T02:07:51;99569.66;;;7.98;100.00
10618;BME280;5356;43.526;26.534;2023-04-09T02:10:19;99573.44;;;7.82;100.00
10618;BME280;5356;43.526;26.534;2023-04-09T02:12:49;99575.19;;;7.75;100.00
10618;BME280;5356;43.526;26.534;2023-04-09T02:15:15;99573.66;;;7.59;100.00
10618;BME280;5356;43.526;26.534;2023-04-09T02:17:41;99577.03;;;7.53;100.00
10618;BME280;5356;43.526;26.534;2023-04-09T02:20:06;99568.09;;;7.54;100.00
10618;BME280;5356;43.526;26.534;2023-04-09T02:22:32;99569.97;;;7.60;100.00
10618;BME280;5356;43.526;26.534;2023-04-09T02:24:57;99577.59;;;7.70;100.00
10618;BME280;5356;43.526;26.534;2023-04-09T02:27:23;99577.41;;;7.71;100.00
10618;BME280;5356;43.526;26.534;2023-04-09T02:29:49;99578.66;;;7.75;100.00
10618;BME280;5356;43.526;26.534;2023-04-09T02:32:14;99567.63;;;7.72;100.00
10618;BME280;5356;43.526;26.534;2023-04-09T02:34:40;99570.59;;;7.62;100.00
10618;BME280;5356;43.526;26.534;2023-04-09T02:37:05;99562.13;;;7.30;100.00
10618;BME280;5356;43.526;26.534;2023-04-09T02:39:31;99567.56;;;7.01;100.00
10618;BME280;5356;43.526;26.534;2023-04-09T02:41:57;99569.44;;;6.70;100.00
10618;BME280;5356;43.526;26.534;2023-04-09T02:44:22;99575.50;;;6.49;100.00
10618;BME280;5356;43.526;26.534;2023-04-09T02:46:49;99571.03;;;6.35;100.00
10618;BME280;5356;43.526;26.534;2023-04-09T02:49:15;99561.97;;;6.44;100.00
10618;BME280;5356;43.526;26.534;2023-04-09T02:51:41;99563.06;;;6.50;100.00
10618;BME280;5356;43.526;26.534;2023-04-09T02:54:06;99575.41;;;6.58;100.00
10618;BME280;5356;43.526;26.534;2023-04-09T02:56:31;99571.34;;;6.62;100.00
10618;BME280;5356;43.526;26.534;2023-04-09T02:58:57;99575.47;;;6.64;100.00
10618;BME280;5356;43.526;26.534;2023-04-09T03:01:22;99576.56;;;6.70;100.00
10618;BME280;5356;43.526;26.534;2023-04-09T03:03:48;99578.47;;;6.76;100.00
10618;BME280;5356;43.526;26.534;2023-04-09T03:06:14;99575.72;;;6.84;100.00
10618;BME280;5356;43.526;26.534;2023-04-09T03:08:40;99577.00;;;6.88;100.00
10618;BME280;5356;43.526;26.534;2023-04-09T03:11:05;99576.09;;;6.81;100.00
10618;BME280;5356;43.526;26.534;2023-04-09T03:13:31;99579.75;;;6.80;100.00
10618;BME280;5356;43.526;26.534;2023-04-09T03:15:56;99576.91;;;6.82;100.00
10618;BME280;5356;43.526;26.534;2023-04-09T03:18:21;99572.63;;;6.81;100.00
10618;BME280;5356;43.526;26.534;2023-04-09T03:20:47;99579.38;;;6.83;100.00
10618;BME280;5356;43.526;26.534;2023-04-09T03:23:12;99581.91;;;6.91;100.00
10618;BME280;5356;43.526;26.534;2023-04-09T03:25:38;99588.09;;;6.98;100.00
10618;BME280;5356;43.526;26.534;2023-04-09T03:28:03;99586.38;;;7.06;100.00
10618;BME280;5356;43.526;26.534;2023-04-09T03:30:29;99587.19;;;7.06;100.00
10618;BME280;5356;43.526;26.534;2023-04-09T03:32:54;99597.13;;;7.04;100.00
10618;BME280;5356;43.526;26.534;2023-04-09T03:35:20;99589.38;;;7.03;100.00
10618;BME280;5356;43.526;26.534;2023-04-09T03:37:46;99591.22;;;7.02;100.00
10618;BME280;5356;43.526;26.534;2023-04-09T03:40:12;99589.38;;;7.03;100.00
10618;BME280;5356;43.526;26.534;2023-04-09T03:42:37;99591.31;;;6.94;100.00
10618;BME280;5356;43.526;26.534;2023-04-09T03:45:03;99596.16;;;6.90;100.00
10618;BME280;5356;43.526;26.534;2023-04-09T03:47:29;99598.56;;;6.85;100.00
10618;BME280;5356;43.526;26.534;2023-04-09T03:49:55;99605.66;;;6.85;100.00
10618;BME280;5356;43.526;26.534;2023-04-09T03:52:20;99589.16;;;6.83;100.00
10618;BME280;5356;43.526;26.534;2023-04-09T03:54:47;99598.47;;;6.79;100.00
10618;BME280;5356;43.526;26.534;2023-04-09T03:57:12;99596.75;;;6.71;100.00
10618;BME280;5356;43.526;26.534;2023-04-09T03:59:37;99604.31;;;6.74;100.00
10618;BME280;5356;43.526;26.534;2023-04-09T04:02:06;99601.84;;;6.72;100.00
10618;BME280;5356;43.526;26.534;2023-04-09T04:04:31;99605.31;;;6.73;100.00
10618;BME280;5356;43.526;26.534;2023-04-09T04:06:57;99609.41;;;6.75;100.00
10618;BME280;5356;43.526;26.534;2023-04-09T04:09:22;99612.72;;;6.78;100.00
10618;BME280;5356;43.526;26.534;2023-04-09T04:11:48;99597.19;;;6.74;100.00
10618;BME280;5356;43.526;26.534;2023-04-09T04:14:14;99607.41;;;6.78;100.00
10618;BME280;5356;43.526;26.534;2023-04-09T04:16:40;99603.00;;;6.85;100.00
10618;BME280;5356;43.526;26.534;2023-04-09T04:19:06;99607.94;;;6.88;100.00
10618;BME280;5356;43.526;26.534;2023-04-09T04:21:31;99600.09;;;6.94;100.00
10618;BME280;5356;43.526;26.534;2023-04-09T04:23:57;99596.53;;;6.87;100.00
10618;BME280;5356;43.526;26.534;2023-04-09T04:26:22;99597.53;;;6.86;100.00
10618;BME280;5356;43.526;26.534;2023-04-09T04:28:48;99599.00;;;6.89;100.00
10618;BME280;5356;43.526;26.534;2023-04-09T04:31:13;99595.97;;;6.92;100.00
10618;BME280;5356;43.526;26.534;2023-04-09T04:33:40;99593.41;;;6.98;100.00
10618;BME280;5356;43.526;26.534;2023-04-09T04:36:07;99601.22;;;7.07;100.00
10618;BME280;5356;43.526;26.534;2023-04-09T04:38:33;99608.06;;;7.16;100.00
10618;BME280;5356;43.526;26.534;2023-04-09T04:40:59;99604.03;;;7.20;100.00
10618;BME280;5356;43.526;26.534;2023-04-09T04:43:25;99602.41;;;7.19;100.00
10618;BME280;5356;43.526;26.534;2023-04-09T04:45:50;99605.28;;;7.24;100.00
10618;BME280;5356;43.526;26.534;2023-04-09T04:48:16;99603.78;;;7.15;100.00
10618;BME280;5356;43.526;26.534;2023-04-09T04:50:41;99610.53;;;7.17;100.00
10618;BME280;5356;43.526;26.534;2023-04-09T04:53:07;99616.75;;;7.25;100.00
10618;BME280;5356;43.526;26.534;2023-04-09T04:55:35;99617.88;;;7.37;100.00
10618;BME280;5356;43.526;26.534;2023-04-09T04:58:01;99609.00;;;7.45;100.00
10618;BME280;5356;43.526;26.534;2023-04-09T05:00:27;99616.09;;;7.44;100.00
10618;BME280;5356;43.526;26.534;2023-04-09T05:02:52;99612.91;;;7.49;100.00
10618;BME280;5356;43.526;26.534;2023-04-09T05:05:18;99610.50;;;7.54;100.00
10618;BME280;5356;43.526;26.534;2023-04-09T05:07:43;99620.34;;;7.60;100.00
10618;BME280;5356;43.526;26.534;2023-04-09T05:10:09;99618.22;;;7.70;100.00
10618;BME280;5356;43.526;26.534;2023-04-09T05:12:34;99623.00;;;7.81;100.00
10618;BME280;5356;43.526;26.534;2023-04-09T05:15:00;99619.19;;;7.91;100.00
10618;BME280;5356;43.526;26.534;2023-04-09T05:17:26;99616.97;;;7.94;100.00
10618;BME280;5356;43.526;26.534;2023-04-09T05:19:52;99614.69;;;8.13;100.00
10618;BME280;5356;43.526;26.534;2023-04-09T05:22:18;99616.44;;;8.33;100.00
10618;BME280;5356;43.526;26.534;2023-04-09T05:24:44;99614.84;;;8.67;100.00
10618;BME280;5356;43.526;26.534;2023-04-09T05:27:09;99612.03;;;8.82;100.00
10618;BME280;5356;43.526;26.534;2023-04-09T05:29:35;99614.56;;;8.97;100.00
10618;BME280;5356;43.526;26.534;2023-04-09T05:32:00;99613.78;;;9.10;100.00
10618;BME280;5356;43.526;26.534;2023-04-09T05:34:26;99614.25;;;9.20;100.00
10618;BME280;5356;43.526;26.534;2023-04-09T05:36:52;99617.53;;;9.29;100.00
10618;BME280;5356;43.526;26.534;2023-04-09T05:39:18;99613.25;;;9.34;100.00
10618;BME280;5356;43.526;26.534;2023-04-09T05:41:43;99617.34;;;9.37;100.00
10618;BME280;5356;43.526;26.534;2023-04-09T05:44:11;99616.75;;;9.41;100.00
10618;BME280;5356;43.526;26.534;2023-04-09T05:46:38;99609.78;;;9.54;100.00
10618;BME280;5356;43.526;26.534;2023-04-09T05:49:04;99614.53;;;9.58;100.00
10618;BME280;5356;43.526;26.534;2023-04-09T05:51:30;99607.78;;;9.62;100.00
10618;BME280;5356;43.526;26.534;2023-04-09T05:53:55;99611.28;;;9.83;100.00
10618;BME280;5356;43.526;26.534;2023-04-09T05:56:21;99610.25;;;9.97;100.00
10618;BME280;5356;43.526;26.534;2023-04-09T05:58:47;99617.22;;;10.05;100.00
10618;BME280;5356;43.526;26.534;2023-04-09T06:01:13;99605.31;;;10.21;100.00
10618;BME280;5356;43.526;26.534;2023-04-09T06:03:38;99610.03;;;10.32;100.00
10618;BME280;5356;43.526;26.534;2023-04-09T06:06:04;99605.72;;;10.51;100.00
10618;BME280;5356;43.526;26.534;2023-04-09T06:08:31;99600.78;;;10.54;100.00
10618;BME280;5356;43.526;26.534;2023-04-09T06:10:57;99600.56;;;10.63;100.00
10618;BME280;5356;43.526;26.534;2023-04-09T06:13:22;99602.59;;;10.67;100.00
10618;BME280;5356;43.526;26.534;2023-04-09T06:15:48;99601.13;;;10.71;100.00
10618;BME280;5356;43.526;26.534;2023-04-09T06:18:18;99601.91;;;10.85;100.00
10618;BME280;5356;43.526;26.534;2023-04-09T06:20:43;99601.44;;;11.01;100.00
10618;BME280;5356;43.526;26.534;2023-04-09T06:23:09;99596.25;;;11.07;100.00
10618;BME280;5356;43.526;26.534;2023-04-09T06:25:34;99596.81;;;11.22;100.00
10618;BME280;5356;43.526;26.534;2023-04-09T06:28:00;99598.44;;;11.30;100.00
10618;BME280;5356;43.526;26.534;2023-04-09T06:30:27;99602.00;;;11.49;100.00
10618;BME280;5356;43.526;26.534;2023-04-09T06:32:52;99605.63;;;11.61;100.00
10618;BME280;5356;43.526;26.534;2023-04-09T06:35:18;99607.25;;;11.62;100.00
10618;BME280;5356;43.526;26.534;2023-04-09T06:37:43;99605.56;;;11.67;100.00
10618;BME280;5356;43.526;26.534;2023-04-09T06:40:09;99606.50;;;11.80;100.00
10618;BME280;5356;43.526;26.534;2023-04-09T06:42:35;99601.53;;;11.90;100.00
10618;BME280;5356;43.526;26.534;2023-04-09T06:45:02;99604.66;;;12.05;100.00
10618;BME280;5356;43.526;26.534;2023-04-09T06:47:32;99604.34;;;12.20;100.00
10618;BME280;5356;43.526;26.534;2023-04-09T06:49:58;99601.34;;;12.35;100.00
10618;BME280;5356;43.526;26.534;2023-04-09T06:52:23;99601.69;;;12.39;100.00
10618;BME280;5356;43.526;26.534;2023-04-09T06:54:49;99601.94;;;12.55;100.00
10618;BME280;5356;43.526;26.534;2023-04-09T06:57:14;99601.41;;;12.65;100.00
10618;BME280;5356;43.526;26.534;2023-04-09T06:59:40;99607.28;;;12.74;100.00
10618;BME280;5356;43.526;26.534;2023-04-09T07:02:05;99606.66;;;12.90;100.00
10618;BME280;5356;43.526;26.534;2023-04-09T07:04:31;99603.69;;;13.17;100.00
10618;BME280;5356;43.526;26.534;2023-04-09T07:06:57;99592.59;;;13.32;100.00
10618;BME280;5356;43.526;26.534;2023-04-09T07:09:24;99602.66;;;13.48;100.00
10618;BME280;5356;43.526;26.534;2023-04-09T07:11:49;99597.78;;;13.57;100.00
10618;BME280;5356;43.526;26.534;2023-04-09T07:14:15;99599.88;;;13.55;100.00
10618;BME280;5356;43.526;26.534;2023-04-09T07:16:41;99598.28;;;13.65;100.00
10618;BME280;5356;43.526;26.534;2023-04-09T07:19:07;99596.19;;;13.67;99.94
10618;BME280;5356;43.526;26.534;2023-04-09T07:21:32;99601.09;;;13.82;99.29
10618;BME280;5356;43.526;26.534;2023-04-09T07:23:58;99598.91;;;13.91;97.82
10618;BME280;5356;43.526;26.534;2023-04-09T07:26:23;99608.69;;;13.97;97.85
10618;BME280;5356;43.526;26.534;2023-04-09T07:28:49;99602.88;;;14.12;97.38
10618;BME280;5356;43.526;26.534;2023-04-09T07:31:14;99599.16;;;14.25;96.16
10618;BME280;5356;43.526;26.534;2023-04-09T07:33:40;99608.59;;;14.27;94.83
10618;BME280;5356;43.526;26.534;2023-04-09T07:36:05;99602.41;;;14.50;95.42
10618;BME280;5356;43.526;26.534;2023-04-09T07:38:31;99607.28;;;14.77;94.79
10618;BME280;5356;43.526;26.534;2023-04-09T07:40:57;99605.78;;;14.69;90.73
10618;BME280;5356;43.526;26.534;2023-04-09T07:43:22;99601.91;;;14.77;87.31
10618;BME280;5356;43.526;26.534;2023-04-09T07:45:48;99603.56;;;14.78;84.23
10618;BME280;5356;43.526;26.534;2023-04-09T07:48:16;99602.03;;;14.82;85.28
10618;BME280;5356;43.526;26.534;2023-04-09T07:50:42;99598.28;;;14.95;86.13
10618;BME280;5356;43.526;26.534;2023-04-09T07:53:09;99601.91;;;14.77;81.50
10618;BME280;5356;43.526;26.534;2023-04-09T07:55:36;99601.53;;;14.85;80.55
10618;BME280;5356;43.526;26.534;2023-04-09T07:58:01;99606.94;;;15.14;82.36
10618;BME280;5356;43.526;26.534;2023-04-09T08:00:28;99598.56;;;15.10;79.49
10618;BME280;5356;43.526;26.534;2023-04-09T08:02:53;99603.53;;;15.18;79.08
10618;BME280;5356;43.526;26.534;2023-04-09T08:05:19;99601.63;;;15.31;79.54
10618;BME280;5356;43.526;26.534;2023-04-09T08:07:44;99606.88;;;15.25;72.83
10618;BME280;5356;43.526;26.534;2023-04-09T08:10:10;99608.44;;;15.21;74.92
10618;BME280;5356;43.526;26.534;2023-04-09T08:12:39;99614.94;;;15.25;75.59
10618;BME280;5356;43.526;26.534;2023-04-09T08:15:05;99611.53;;;15.30;75.49
10618;BME280;5356;43.526;26.534;2023-04-09T08:17:31;99611.53;;;15.59;78.77
10618;BME280;5356;43.526;26.534;2023-04-09T08:19:56;99605.56;;;15.57;75.26
10618;BME280;5356;43.526;26.534;2023-04-09T08:22:22;99606.81;;;15.66;72.03
10618;BME280;5356;43.526;26.534;2023-04-09T08:24:52;99615.00;;;15.71;68.14
10618;BME280;5356;43.526;26.534;2023-04-09T08:27:18;99609.16;;;15.62;67.62
10618;BME280;5356;43.526;26.534;2023-04-09T08:29:44;99601.53;;;15.54;69.53
10618;BME280;5356;43.526;26.534;2023-04-09T08:32:10;99619.00;;;15.68;72.19
10618;BME280;5356;43.526;26.534;2023-04-09T08:34:35;99611.00;;;15.90;72.23
10618;BME280;5356;43.526;26.534;2023-04-09T08:37:01;99614.59;;;15.96;70.43
10618;BME280;5356;43.526;26.534;2023-04-09T08:39:27;99612.16;;;15.94;65.47
10618;BME280;5356;43.526;26.534;2023-04-09T08:41:57;99610.59;;;15.99;65.86
10618;BME280;5356;43.526;26.534;2023-04-09T08:44:28;99620.84;;;16.02;63.64
10618;BME280;5356;43.526;26.534;2023-04-09T08:46:56;99627.72;;;16.09;63.69
10618;BME280;5356;43.526;26.534;2023-04-09T08:49:23;99617.94;;;16.20;66.18
10618;BME280;5356;43.526;26.534;2023-04-09T08:51:48;99622.75;;;16.57;68.37
10618;BME280;5356;43.526;26.534;2023-04-09T08:54:17;99625.09;;;16.70;65.65
10618;BME280;5356;43.526;26.534;2023-04-09T08:56:45;99617.44;;;16.79;64.30
10618;BME280;5356;43.526;26.534;2023-04-09T08:59:16;99620.19;;;16.67;62.00
10618;BME280;5356;43.526;26.534;2023-04-09T09:01:42;99621.19;;;16.78;61.21
10618;BME280;5356;43.526;26.534;2023-04-09T09:04:10;99606.91;;;16.77;60.29
10618;BME280;5356;43.526;26.534;2023-04-09T09:06:39;99615.66;;;16.68;57.41
10618;BME280;5356;43.526;26.534;2023-04-09T09:09:12;99617.91;;;16.76;57.48
10618;BME280;5356;43.526;26.534;2023-04-09T09:11:45;99609.91;;;16.81;55.43
10618;BME280;5356;43.526;26.534;2023-04-09T10:00:19;99597.78;;;17.55;49.46
10618;BME280;5356;43.526;26.534;2023-04-09T10:22:19;99587.47;;;18.06;46.26
10618;BME280;5356;43.526;26.534;2023-04-09T10:25:11;99587.19;;;18.02;45.38
10618;BME280;5356;43.526;26.534;2023-04-09T10:40:58;99567.13;;;18.30;44.59
10618;BME280;5356;43.526;26.534;2023-04-09T10:46:54;99573.97;;;18.48;43.92
10618;BME280;5356;43.526;26.534;2023-04-09T10:49:21;99560.44;;;18.38;42.61
10618;BME280;5356;43.526;26.534;2023-04-09T10:51:53;99569.31;;;18.33;43.49
10618;BME280;5356;43.526;26.534;2023-04-09T10:57:20;99561.13;;;18.71;42.69
10618;BME280;5356;43.526;26.534;2023-04-09T10:59:50;99553.88;;;18.76;42.70
10618;BME280;5356;43.526;26.534;2023-04-09T11:05:03;99548.31;;;19.09;43.00
10618;BME280;5356;43.526;26.534;2023-04-09T11:07:35;99544.00;;;19.18;43.27
10618;BME280;5356;43.526;26.534;2023-04-09T11:10:04;99546.72;;;19.23;42.84
10618;BME280;5356;43.526;26.534;2023-04-09T11:12:30;99534.06;;;19.34;42.93
10618;BME280;5356;43.526;26.534;2023-04-09T11:14:55;99537.03;;;19.37;43.19
10618;BME280;5356;43.526;26.534;2023-04-09T11:17:21;99545.13;;;19.37;43.79
10618;BME280;5356;43.526;26.534;2023-04-09T11:19:46;99539.19;;;19.45;43.34
10618;BME280;5356;43.526;26.534;2023-04-09T11:22:12;99532.16;;;19.44;43.14
10618;BME280;5356;43.526;26.534;2023-04-09T11:24:42;99529.97;;;19.05;42.60
10618;BME280;5356;43.526;26.534;2023-04-09T11:27:07;99529.88;;;18.85;43.36
10618;BME280;5356;43.526;26.534;2023-04-09T11:29:36;99534.06;;;18.50;43.20
10618;BME280;5356;43.526;26.534;2023-04-09T11:32:02;99527.94;;;18.12;43.37
10618;BME280;5356;43.526;26.534;2023-04-09T11:34:30;99523.59;;;17.74;44.70
10618;BME280;5356;43.526;26.534;2023-04-09T11:36:55;99530.78;;;17.63;45.25
10618;BME280;5356;43.526;26.534;2023-04-09T11:39:23;99531.91;;;17.67;45.55
10618;BME280;5356;43.526;26.534;2023-04-09T11:41:48;99529.28;;;17.45;45.57
10618;BME280;5356;43.526;26.534;2023-04-09T11:44:14;99524.19;;;17.49;45.50
10618;BME280;5356;43.526;26.534;2023-04-09T11:46:40;99519.94;;;17.53;46.13
10618;BME280;5356;43.526;26.534;2023-04-09T11:49:06;99516.09;;;17.44;45.99
10618;BME280;5356;43.526;26.534;2023-04-09T11:51:32;99513.22;;;17.56;46.06
10618;BME280;5356;43.526;26.534;2023-04-09T11:54:04;99513.53;;;17.59;45.66
10618;BME280;5356;43.526;26.534;2023-04-09T11:56:30;99513.03;;;17.67;45.77
10618;BME280;5356;43.526;26.534;2023-04-09T11:58:56;99518.28;;;17.79;45.50
10618;BME280;5356;43.526;26.534;2023-04-09T12:01:22;99511.09;;;17.90;45.34
10618;BME280;5356;43.526;26.534;2023-04-09T12:03:54;99514.19;;;18.14;45.55
10618;BME280;5356;43.526;26.534;2023-04-09T12:06:21;99511.28;;;18.21;44.73
10618;BME280;5356;43.526;26.534;2023-04-09T12:08:51;99513.53;;;18.44;45.76
10618;BME280;5356;43.526;26.534;2023-04-09T12:11:17;99498.56;;;18.79;45.78
10618;BME280;5356;43.526;26.534;2023-04-09T12:13:44;99502.81;;;18.70;45.47
10618;BME280;5356;43.526;26.534;2023-04-09T12:16:14;99498.50;;;18.63;45.11
10618;BME280;5356;43.526;26.534;2023-04-09T12:18:43;99495.88;;;18.84;44.93
10618;BME280;5356;43.526;26.534;2023-04-09T12:21:09;99495.34;;;18.77;44.15
10618;BME280;5356;43.526;26.534;2023-04-09T12:23:34;99487.28;;;19.02;44.56
10618;BME280;5356;43.526;26.534;2023-04-09T12:26:02;99487.03;;;19.29;43.76
10618;BME280;5356;43.526;26.534;2023-04-09T12:28:28;99478.66;;;19.51;43.17
10618;BME280;5356;43.526;26.534;2023-04-09T12:30:53;99488.41;;;19.68;43.75
10618;BME280;5356;43.526;26.534;2023-04-09T12:33:20;99483.22;;;19.87;43.60
10618;BME280;5356;43.526;26.534;2023-04-09T12:35:45;99485.13;;;19.61;42.67
10618;BME280;5356;43.526;26.534;2023-04-09T12:38:11;99480.56;;;19.31;42.36
10618;BME280;5356;43.526;26.534;2023-04-09T12:40:37;99478.38;;;19.12;42.88
10618;BME280;5356;43.526;26.534;2023-04-09T12:43:03;99476.50;;;19.02;42.92
10618;BME280;5356;43.526;26.534;2023-04-09T12:45:29;99476.72;;;18.86;42.53
10618;BME280;5356;43.526;26.534;2023-04-09T12:47:55;99479.84;;;18.62;42.98
10618;BME280;5356;43.526;26.534;2023-04-09T12:50:20;99479.25;;;18.45;43.07
10618;BME280;5356;43.526;26.534;2023-04-09T12:52:46;99483.81;;;18.39;42.91
10618;BME280;5356;43.526;26.534;2023-04-09T12:55:13;99474.31;;;18.21;42.81
10618;BME280;5356;43.526;26.534;2023-04-09T12:57:42;99461.88;;;18.20;43.23
10618;BME280;5356;43.526;26.534;2023-04-09T13:00:08;99458.91;;;18.16;43.07
10618;BME280;5356;43.526;26.534;2023-04-09T13:02:34;99462.66;;;18.10;43.17
10618;BME280;5356;43.526;26.534;2023-04-09T13:04:59;99458.16;;;18.26;43.21
10618;BME280;5356;43.526;26.534;2023-04-09T13:07:25;99458.00;;;18.58;45.23
10618;BME280;5356;43.526;26.534;2023-04-09T13:09:54;99451.91;;;19.04;43.68
10618;BME280;5356;43.526;26.534;2023-04-09T13:12:19;99452.72;;;19.20;42.44
10618;BME280;5356;43.526;26.534;2023-04-09T13:14:46;99445.97;;;19.33;41.62
10618;BME280;5356;43.526;26.534;2023-04-09T13:17:12;99445.13;;;19.47;41.54
10618;BME280;5356;43.526;26.534;2023-04-09T13:19:38;99453.28;;;19.73;41.48
10618;BME280;5356;43.526;26.534;2023-04-09T13:22:03;99443.00;;;19.24;40.87
10618;BME280;5356;43.526;26.534;2023-04-09T13:24:32;99455.03;;;18.65;41.01
10618;BME280;5356;43.526;26.534;2023-04-09T13:26:58;99444.63;;;18.16;41.91
10618;BME280;5356;43.526;26.534;2023-04-09T13:29:24;99446.25;;;18.12;42.48
10618;BME280;5356;43.526;26.534;2023-04-09T13:31:56;99438.06;;;17.97;42.64
10618;BME280;5356;43.526;26.534;2023-04-09T13:34:23;99446.38;;;17.90;43.03
10618;BME280;5356;43.526;26.534;2023-04-09T13:36:48;99439.56;;;18.30;42.69
10618;BME280;5356;43.526;26.534;2023-04-09T13:39:14;99432.63;;;18.49;42.46
10618;BME280;5356;43.526;26.534;2023-04-09T13:41:39;99425.69;;;18.84;42.88
10618;BME280;5356;43.526;26.534;2023-04-09T13:44:05;99433.00;;;18.99;41.74
10618;BME280;5356;43.526;26.534;2023-04-09T13:46:30;99433.25;;;18.92;40.59
10618;BME280;5356;43.526;26.534;2023-04-09T13:48:57;99423.81;;;19.15;41.17
10618;BME280;5356;43.526;26.534;2023-04-09T13:51:24;99430.00;;;19.41;41.08
10618;BME280;5356;43.526;26.534;2023-04-09T13:53:50;99431.34;;;19.69;41.04
10618;BME280;5356;43.526;26.534;2023-04-09T13:56:16;99424.88;;;19.55;39.78
10618;BME280;5356;43.526;26.534;2023-04-09T13:58:43;99427.56;;;19.50;40.50
10618;BME280;5356;43.526;26.534;2023-04-09T14:01:09;99424.59;;;19.46;39.62
10618;BME280;5356;43.526;26.534;2023-04-09T14:03:36;99427.31;;;19.67;42.18
10618;BME280;5356;43.526;26.534;2023-04-09T14:06:05;99419.66;;;19.94;40.94
10618;BME280;5356;43.526;26.534;2023-04-09T14:08:30;99416.88;;;20.15;39.96
10618;BME280;5356;43.526;26.534;2023-04-09T14:10:56;99420.13;;;20.17;39.89
10618;BME280;5356;43.526;26.534;2023-04-09T14:13:21;99422.72;;;20.42;39.46
10618;BME280;5356;43.526;26.534;2023-04-09T14:15:47;99420.13;;;20.12;37.82
10618;BME280;5356;43.526;26.534;2023-04-09T14:18:14;99407.81;;;19.75;37.97
10618;BME280;5356;43.526;26.534;2023-04-09T14:20:39;99408.09;;;19.58;38.61
10618;BME280;5356;43.526;26.534;2023-04-09T14:23:05;99404.31;;;19.69;39.20
10618;BME280;5356;43.526;26.534;2023-04-09T14:25:30;99410.53;;;19.70;39.13
10618;BME280;5356;43.526;26.534;2023-04-09T14:27:56;99410.25;;;19.82;38.50
10618;BME280;5356;43.526;26.534;2023-04-09T14:30:22;99417.00;;;19.64;38.00